createdAt,value
2022-08-24T00:00:55.794Z,24.77
2022-08-24T00:01:59.083Z,27.52
2022-08-24T00:03:01.617Z,38.40
2022-08-24T00:04:05.325Z,14.23
2022-08-24T00:05:14.025Z,9.70
2022-08-24T00:06:21.654Z,15.85
2022-08-24T00:07:27.931Z,12.23
2022-08-24T00:08:32.050Z,12.05
2022-08-24T00:09:34.872Z,12.02
2022-08-24T00:10:38.256Z,9.00
2022-08-24T00:11:40.447Z,9.60
2022-08-24T00:12:46.235Z,11.80
2022-08-24T00:13:50.745Z,9.90
2022-08-24T00:14:53.670Z,9.40
2022-08-24T00:15:56.585Z,16.02
2022-08-24T00:17:00.455Z,15.50
2022-08-24T00:18:02.797Z,14.65
2022-08-24T00:19:06.184Z,12.95
2022-08-24T00:20:11.430Z,12.02
2022-08-24T00:21:17.636Z,9.88
2022-08-24T00:22:20.947Z,8.45
2022-08-24T00:23:24.011Z,9.35
2022-08-24T00:24:26.735Z,8.77
2022-08-24T00:25:29.926Z,10.55
2022-08-24T00:26:32.093Z,11.40
2022-08-24T00:27:36.650Z,10.98
2022-08-24T00:28:38.643Z,9.23
2022-08-24T00:29:42.905Z,13.20
2022-08-24T00:30:45.744Z,9.27
2022-08-24T00:31:49.150Z,13.40
2022-08-24T00:32:51.424Z,7.05
2022-08-24T00:33:54.700Z,13.43
2022-08-24T00:34:59.146Z,9.27
2022-08-24T00:36:01.530Z,11.40
2022-08-24T00:37:05.579Z,10.63
2022-08-24T00:38:08.321Z,12.27
2022-08-24T00:39:12.630Z,10.68
2022-08-24T00:40:19.315Z,12.43
2022-08-24T00:41:22.855Z,12.65
2022-08-24T00:42:25.189Z,8.65
2022-08-24T00:43:28.103Z,9.55
2022-08-24T00:44:31.301Z,13.07
2022-08-24T00:45:42.876Z,8.52
2022-08-24T00:46:52.079Z,12.18
2022-08-24T00:47:59.309Z,19.55
2022-08-24T00:49:06.019Z,13.13
2022-08-24T00:50:12.236Z,12.57
2022-08-24T00:51:19.950Z,17.55
2022-08-24T00:52:27.998Z,13.43
2022-08-24T00:53:36.107Z,11.20
2022-08-24T00:54:46.262Z,8.95
2022-08-24T00:55:53.956Z,11.25
2022-08-24T00:57:02.490Z,13.77
2022-08-24T00:58:11.269Z,10.35
2022-08-24T00:59:23.176Z,9.65
2022-08-24T01:00:29.872Z,10.68
2022-08-24T01:01:35.345Z,12.38
2022-08-24T01:02:43.411Z,8.20
2022-08-24T01:03:46.334Z,12.63
2022-08-24T01:04:53.278Z,8.57
2022-08-24T01:05:56.646Z,15.98
2022-08-24T01:07:00.074Z,13.82
2022-08-24T01:08:04.522Z,12.02
2022-08-24T01:09:07.675Z,12.82
2022-08-24T01:10:15.134Z,10.63
2022-08-24T01:11:21.792Z,16.08
2022-08-24T01:12:27.040Z,10.20
2022-08-24T01:13:33.980Z,13.02
2022-08-24T01:14:37.528Z,11.05
2022-08-24T01:15:43.515Z,10.25
2022-08-24T01:17:05.582Z,11.52
2022-08-24T01:18:29.874Z,8.82
2022-08-24T01:19:36.546Z,8.05
2022-08-24T01:20:39.917Z,9.60
2022-08-24T01:21:47.959Z,11.88
2022-08-24T01:22:59.855Z,15.68
2022-08-24T01:24:10.056Z,10.52
2022-08-24T01:25:13.223Z,9.38
2022-08-24T01:26:18.978Z,11.30
2022-08-24T01:27:28.141Z,19.42
2022-08-24T01:28:30.987Z,40.65
2022-08-24T01:29:37.082Z,18.10
2022-08-24T01:30:39.953Z,31.55
2022-08-24T01:31:43.096Z,52.75
2022-08-24T01:32:54.046Z,33.90
2022-08-24T01:33:58.258Z,24.92
2022-08-24T01:35:00.725Z,28.17
2022-08-24T01:36:18.868Z,11.85
2022-08-24T01:37:22.642Z,13.82
2022-08-24T01:38:26.344Z,13.05
2022-08-24T01:39:32.926Z,21.02
2022-08-24T01:40:39.331Z,14.45
2022-08-24T01:41:41.499Z,13.00
2022-08-24T01:42:49.246Z,9.25
2022-08-24T01:43:51.549Z,11.95
2022-08-24T01:44:55.704Z,14.32
2022-08-24T01:45:58.897Z,15.23
2022-08-24T01:47:06.734Z,10.55
2022-08-24T01:48:10.711Z,10.63
2022-08-24T01:49:14.240Z,12.70
2022-08-24T01:50:17.205Z,13.30
2022-08-24T01:51:21.289Z,13.18
2022-08-24T01:52:25.864Z,12.45
2022-08-24T01:53:29.238Z,18.33
2022-08-24T01:54:33.943Z,10.35
2022-08-24T01:55:37.674Z,13.68
2022-08-24T01:56:40.124Z,18.88
2022-08-24T01:57:43.357Z,11.90
2022-08-24T01:58:46.659Z,14.68
2022-08-24T01:59:49.696Z,16.15
2022-08-24T02:00:51.986Z,17.08
2022-08-24T02:01:58.049Z,16.67
2022-08-24T02:03:00.383Z,16.10
2022-08-24T02:04:06.512Z,18.58
2022-08-24T02:05:13.042Z,15.80
2022-08-24T02:06:16.435Z,20.95
2022-08-24T02:07:19.694Z,20.60
2022-08-24T02:08:22.958Z,26.08
2022-08-24T02:09:27.990Z,19.23
2022-08-24T02:10:38.410Z,30.75
2022-08-24T02:11:41.721Z,35.05
2022-08-24T02:12:58.130Z,25.42
2022-08-24T02:14:00.960Z,36.45
2022-08-24T02:15:06.444Z,32.53
2022-08-24T02:16:09.489Z,33.55
2022-08-24T02:17:12.910Z,38.45
2022-08-24T02:18:15.707Z,46.47
2022-08-24T02:19:19.691Z,39.20
2022-08-24T02:20:22.431Z,33.72
2022-08-24T02:21:26.361Z,43.60
2022-08-24T02:22:28.671Z,41.45
2022-08-24T02:23:33.861Z,44.22
2022-08-24T02:24:38.768Z,45.95
2022-08-24T02:25:44.143Z,44.72
2022-08-24T02:26:46.910Z,53.40
2022-08-24T02:27:49.910Z,56.08
2022-08-24T02:28:52.445Z,66.47
2022-08-24T02:29:56.138Z,49.83
2022-08-24T02:30:58.486Z,51.63
2022-08-24T02:32:01.644Z,54.22
2022-08-24T02:33:04.441Z,53.17
2022-08-24T02:34:08.851Z,56.90
2022-08-24T02:35:11.677Z,45.53
2022-08-24T02:36:26.212Z,47.00
2022-08-24T02:37:30.989Z,53.65
2022-08-24T02:38:33.474Z,59.70
2022-08-24T02:39:36.441Z,71.68
2022-08-24T02:40:43.511Z,55.20
2022-08-24T02:41:46.478Z,59.67
2022-08-24T02:42:48.602Z,55.95
2022-08-24T02:43:51.666Z,59.47
2022-08-24T02:44:55.263Z,54.08
2022-08-24T02:45:58.895Z,66.63
2022-08-24T02:47:01.130Z,65.10
2022-08-24T02:48:05.724Z,70.82
2022-08-24T02:49:11.748Z,69.80
2022-08-24T02:50:18.779Z,74.75
2022-08-24T02:51:22.128Z,71.13
2022-08-24T02:52:25.574Z,81.10
2022-08-24T02:53:27.961Z,78.85
2022-08-24T02:54:31.035Z,80.18
2022-08-24T02:55:33.153Z,77.15
2022-08-24T02:56:37.617Z,69.78
2022-08-24T02:57:40.506Z,76.78
2022-08-24T02:58:44.070Z,68.38
2022-08-24T02:59:46.093Z,75.50
2022-08-24T03:00:49.764Z,85.95
2022-08-24T03:01:55.151Z,70.50
2022-08-24T03:02:59.842Z,75.47
2022-08-24T03:04:03.072Z,74.57
2022-08-24T03:05:07.154Z,64.43
2022-08-24T03:06:10.675Z,75.53
2022-08-24T03:07:14.043Z,68.22
2022-08-24T03:08:16.251Z,68.90
2022-08-24T03:09:20.437Z,65.05
2022-08-24T03:10:25.970Z,66.90
2022-08-24T03:11:29.261Z,65.90
2022-08-24T03:12:32.816Z,76.70
2022-08-24T03:13:37.181Z,69.00
2022-08-24T03:14:39.258Z,63.42
2022-08-24T03:15:42.684Z,68.13
2022-08-24T03:16:45.306Z,59.33
2022-08-24T03:17:48.410Z,61.35
2022-08-24T03:18:50.561Z,60.70
2022-08-24T03:19:53.785Z,68.90
2022-08-24T03:20:58.719Z,68.18
2022-08-24T03:22:01.927Z,61.10
2022-08-24T03:23:04.518Z,66.63
2022-08-24T03:24:07.711Z,62.58
2022-08-24T03:25:14.254Z,65.95
2022-08-24T03:26:17.419Z,63.50
2022-08-24T03:27:19.597Z,55.55
2022-08-24T03:28:26.253Z,66.90
2022-08-24T03:29:33.612Z,53.58
2022-08-24T03:30:38.645Z,61.53
2022-08-24T03:31:43.620Z,69.45
2022-08-24T03:32:47.052Z,63.22
2022-08-24T03:33:49.365Z,58.17
2022-08-24T03:34:54.296Z,55.75
2022-08-24T03:35:56.483Z,67.80
2022-08-24T03:36:59.677Z,59.53
2022-08-24T03:38:01.779Z,57.95
2022-08-24T03:39:05.139Z,61.22
2022-08-24T03:40:22.136Z,55.90
2022-08-24T03:41:27.370Z,63.22
2022-08-24T03:42:29.670Z,62.30
2022-08-24T03:43:47.874Z,65.80
2022-08-24T03:44:53.972Z,56.63
2022-08-24T03:45:56.149Z,56.38
2022-08-24T03:46:59.400Z,56.25
2022-08-24T03:48:03.509Z,47.38
2022-08-24T03:49:10.890Z,70.47
2022-08-24T03:50:13.558Z,58.97
2022-08-24T03:51:19.124Z,53.10
2022-08-24T03:52:23.326Z,57.05
2022-08-24T03:53:29.080Z,53.28
2022-08-24T03:54:31.472Z,61.22
2022-08-24T03:55:34.414Z,64.28
2022-08-24T03:56:36.638Z,50.58
2022-08-24T03:57:39.620Z,56.60
2022-08-24T03:58:43.012Z,55.53
2022-08-24T03:59:46.592Z,51.22
2022-08-24T04:00:50.003Z,52.13
2022-08-24T04:01:55.996Z,59.88
2022-08-24T04:02:58.146Z,52.42
2022-08-24T04:04:02.862Z,63.15
2022-08-24T04:05:09.320Z,54.78
2022-08-24T04:06:14.395Z,54.63
2022-08-24T04:07:17.471Z,46.85
2022-08-24T04:08:21.141Z,51.97
2022-08-24T04:09:23.222Z,52.45
2022-08-24T04:10:26.221Z,59.35
2022-08-24T04:11:29.430Z,53.72
2022-08-24T04:12:32.490Z,52.05
2022-08-24T04:13:34.748Z,53.40
2022-08-24T04:14:40.102Z,54.92
2022-08-24T04:15:50.239Z,52.17
2022-08-24T04:16:57.900Z,55.20
2022-08-24T04:18:06.563Z,44.55
2022-08-24T04:19:09.721Z,49.13
2022-08-24T04:20:12.578Z,49.10
2022-08-24T04:21:20.593Z,47.35
2022-08-24T04:22:23.288Z,49.85
2022-08-24T04:23:29.026Z,46.38
2022-08-24T04:24:49.598Z,51.08
2022-08-24T04:25:52.592Z,51.67
2022-08-24T04:26:54.657Z,48.28
2022-08-24T04:27:57.612Z,47.83
2022-08-24T04:28:59.963Z,47.63
2022-08-24T04:30:05.424Z,49.85
2022-08-24T04:31:18.973Z,51.22
2022-08-24T04:32:21.216Z,58.88
2022-08-24T04:33:25.064Z,54.25
2022-08-24T04:34:27.816Z,53.10
2022-08-24T04:35:31.573Z,47.72
2022-08-24T04:36:34.816Z,57.38
2022-08-24T04:37:38.146Z,48.50
2022-08-24T04:38:40.854Z,53.90
2022-08-24T04:40:08.903Z,45.67
2022-08-24T04:41:20.254Z,42.88
2022-08-24T04:42:35.132Z,45.88
2022-08-24T04:43:37.089Z,51.30
2022-08-24T04:44:40.262Z,43.38
2022-08-24T04:45:45.737Z,52.83
2022-08-24T04:46:48.992Z,49.45
2022-08-24T04:47:51.085Z,42.25
2022-08-24T04:48:54.598Z,43.90
2022-08-24T04:49:56.917Z,41.28
2022-08-24T04:51:03.103Z,42.20
2022-08-24T04:52:07.178Z,48.88
2022-08-24T04:53:13.684Z,46.80
2022-08-24T04:54:17.945Z,49.35
2022-08-24T04:55:27.538Z,51.30
2022-08-24T04:56:29.891Z,47.20
2022-08-24T04:57:34.716Z,43.97
2022-08-24T04:58:36.707Z,43.83
2022-08-24T04:59:39.801Z,45.20
2022-08-24T05:00:44.849Z,48.17
2022-08-24T05:01:48.310Z,50.63
2022-08-24T05:02:50.729Z,45.92
2022-08-24T05:03:55.449Z,43.20
2022-08-24T05:04:58.233Z,41.53
2022-08-24T05:06:01.275Z,43.53
2022-08-24T05:07:03.943Z,42.60
2022-08-24T05:08:07.270Z,40.50
2022-08-24T05:09:10.366Z,43.63
2022-08-24T05:10:13.664Z,42.80
2022-08-24T05:11:19.640Z,50.10
2022-08-24T05:12:21.729Z,37.95
2022-08-24T05:13:34.043Z,42.33
2022-08-24T05:14:37.334Z,43.15
2022-08-24T05:15:45.357Z,42.67
2022-08-24T05:16:52.804Z,39.50
2022-08-24T05:17:57.628Z,45.53
2022-08-24T05:19:00.396Z,42.60
2022-08-24T05:20:04.096Z,41.35
2022-08-24T05:21:08.560Z,54.17
2022-08-24T05:22:11.727Z,53.00
2022-08-24T05:23:19.965Z,41.13
2022-08-24T05:24:23.621Z,43.08
2022-08-24T05:25:25.846Z,46.72
2022-08-24T05:26:30.419Z,57.10
2022-08-24T05:27:33.536Z,53.58
2022-08-24T05:28:37.089Z,41.10
2022-08-24T05:29:39.285Z,43.63
2022-08-24T05:30:44.219Z,39.55
2022-08-24T05:31:47.359Z,44.85
2022-08-24T05:32:50.821Z,43.15
2022-08-24T05:33:55.452Z,40.83
2022-08-24T05:35:01.265Z,43.92
2022-08-24T05:36:04.744Z,45.15
2022-08-24T05:37:08.759Z,41.28
2022-08-24T05:38:21.066Z,65.25
2022-08-24T05:39:24.475Z,36.67
2022-08-24T05:40:33.477Z,34.45
2022-08-24T05:41:37.337Z,41.20
2022-08-24T05:42:46.541Z,40.10
2022-08-24T05:43:50.982Z,36.95
2022-08-24T05:44:53.862Z,52.55
2022-08-24T05:45:59.940Z,46.40
2022-08-24T05:47:03.097Z,41.83
2022-08-24T05:48:07.467Z,41.78
2022-08-24T05:49:51.684Z,34.15
2022-08-24T05:50:55.444Z,49.00
2022-08-24T05:52:00.131Z,38.30
2022-08-24T05:53:04.945Z,40.03
2022-08-24T05:54:09.110Z,34.28
2022-08-24T05:55:25.637Z,29.70
2022-08-24T05:56:31.878Z,32.95
2022-08-24T05:57:38.174Z,28.45
2022-08-24T05:58:51.814Z,33.25
2022-08-24T05:59:54.934Z,35.53
2022-08-24T06:01:05.016Z,31.73
2022-08-24T06:02:08.647Z,32.95
2022-08-24T06:03:14.572Z,35.20
2022-08-24T06:04:20.989Z,37.03
2022-08-24T06:05:23.697Z,40.78
2022-08-24T06:06:28.725Z,29.55
2022-08-24T06:07:30.762Z,32.97
2022-08-24T06:08:41.094Z,34.72
2022-08-24T06:09:45.920Z,30.38
2022-08-24T06:10:48.937Z,32.90
2022-08-24T06:11:52.725Z,35.58
2022-08-24T06:12:54.900Z,36.97
2022-08-24T06:14:00.825Z,30.00
2022-08-24T06:15:06.567Z,35.10
2022-08-24T06:16:21.800Z,35.50
2022-08-24T06:17:26.384Z,34.60
2022-08-24T06:18:29.666Z,32.45
2022-08-24T06:19:33.136Z,31.15
2022-08-24T06:20:39.717Z,37.70
2022-08-24T06:21:43.710Z,28.38
2022-08-24T06:22:46.621Z,30.20
2022-08-24T06:23:51.094Z,35.08
2022-08-24T06:25:20.283Z,33.47
2022-08-24T06:26:41.313Z,30.10
2022-08-24T06:27:45.211Z,32.08
2022-08-24T06:28:49.585Z,28.70
2022-08-24T06:29:53.855Z,29.65
2022-08-24T06:31:18.100Z,30.17
2022-08-24T06:32:21.426Z,35.07
2022-08-24T06:33:26.157Z,31.35
2022-08-24T06:34:30.666Z,26.50
2022-08-24T06:35:33.225Z,28.23
2022-08-24T06:36:36.727Z,26.17
2022-08-24T06:37:38.765Z,28.63
2022-08-24T06:38:43.529Z,25.20
2022-08-24T06:39:49.272Z,29.52
2022-08-24T06:40:59.696Z,28.17
2022-08-24T06:42:02.341Z,26.20
2022-08-24T06:43:06.719Z,28.63
2022-08-24T06:44:16.701Z,28.35
2022-08-24T06:45:26.158Z,27.07
2022-08-24T06:46:32.887Z,32.03
2022-08-24T06:47:35.559Z,31.27
2022-08-24T06:48:38.644Z,25.00
2022-08-24T06:49:41.285Z,24.00
2022-08-24T06:50:44.445Z,27.90
2022-08-24T06:51:50.606Z,29.33
2022-08-24T06:52:54.766Z,22.55
2022-08-24T06:53:59.590Z,26.88
2022-08-24T06:55:03.515Z,23.47
2022-08-24T06:56:11.492Z,23.93
2022-08-24T06:57:14.572Z,24.20
2022-08-24T06:58:17.396Z,25.70
2022-08-24T06:59:20.945Z,23.80
2022-08-24T07:00:25.023Z,22.07
2022-08-24T07:01:30.271Z,23.23
2022-08-24T07:02:32.381Z,22.53
2022-08-24T07:03:41.637Z,17.77
2022-08-24T07:05:03.653Z,18.27
2022-08-24T07:06:26.347Z,21.93
2022-08-24T07:07:33.990Z,20.53
2022-08-24T07:08:38.540Z,22.63
2022-08-24T07:09:44.115Z,25.77
2022-08-24T07:11:14.414Z,19.90
2022-08-24T07:12:18.284Z,22.63
2022-08-24T07:13:20.381Z,17.40
2022-08-24T07:14:23.809Z,17.97
2022-08-24T07:15:26.653Z,21.47
2022-08-24T07:16:47.392Z,28.67
2022-08-24T07:17:49.613Z,21.63
2022-08-24T07:18:52.616Z,23.90
2022-08-24T07:19:57.731Z,33.53
2022-08-24T07:21:38.226Z,24.50
2022-08-24T07:22:40.712Z,25.17
2022-08-24T07:23:44.740Z,25.73
2022-08-24T07:24:48.684Z,18.93
2022-08-24T07:25:55.919Z,23.70
2022-08-24T07:26:58.235Z,19.03
2022-08-24T07:28:06.750Z,21.90
2022-08-24T07:29:43.750Z,20.07
2022-08-24T07:30:41.359Z,29.97
2022-08-24T07:31:44.145Z,21.73
2022-08-24T07:32:55.038Z,24.33
2022-08-24T07:33:57.108Z,18.40
2022-08-24T07:35:00.509Z,25.30
2022-08-24T07:36:02.580Z,20.00
2022-08-24T07:37:07.811Z,21.37
2022-08-24T07:38:12.798Z,19.43
2022-08-24T07:39:15.707Z,19.37
2022-08-24T07:40:18.278Z,23.80
2022-08-24T07:41:56.718Z,18.77
2022-08-24T07:42:49.453Z,22.67
2022-08-24T07:43:52.309Z,19.20
2022-08-24T07:44:55.892Z,19.53
2022-08-24T07:45:59.178Z,26.43
2022-08-24T07:47:20.692Z,17.77
2022-08-24T07:48:28.653Z,14.73
2022-08-24T07:49:37.279Z,18.80
2022-08-24T07:50:42.798Z,19.20
2022-08-24T07:51:47.004Z,15.93
2022-08-24T07:52:50.545Z,15.17
2022-08-24T07:53:54.200Z,15.27
2022-08-24T07:55:03.289Z,16.40
2022-08-24T07:56:05.932Z,13.43
2022-08-24T07:57:10.761Z,12.00
2022-08-24T07:58:13.685Z,18.60
2022-08-24T07:59:16.649Z,13.43
2022-08-24T08:00:20.044Z,22.27
2022-08-24T08:01:28.608Z,20.53
2022-08-24T08:02:35.054Z,14.60
2022-08-24T08:03:41.079Z,12.60
2022-08-24T08:04:43.218Z,14.80
2022-08-24T08:05:46.442Z,11.93
2022-08-24T08:06:49.571Z,19.20
2022-08-24T08:07:53.566Z,14.83
2022-08-24T08:08:56.041Z,16.70
2022-08-24T08:10:00.182Z,19.73
2022-08-24T08:11:03.850Z,17.73
2022-08-24T08:12:09.253Z,15.03
2022-08-24T08:13:14.167Z,11.87
2022-08-24T08:14:16.384Z,14.87
2022-08-24T08:15:19.484Z,23.40
2022-08-24T08:16:30.136Z,15.03
2022-08-24T08:17:33.279Z,13.50
2022-08-24T08:18:36.455Z,18.77
2022-08-24T08:19:44.917Z,18.67
2022-08-24T08:20:48.676Z,17.70
2022-08-24T08:22:11.504Z,22.13
2022-08-24T08:23:50.844Z,15.83
2022-08-24T08:25:02.006Z,17.87
2022-08-24T08:26:04.170Z,13.83
2022-08-24T08:27:27.514Z,18.57
2022-08-24T08:28:35.679Z,15.93
2022-08-24T08:29:40.500Z,20.00
2022-08-24T08:30:45.246Z,16.67
2022-08-24T08:31:47.862Z,20.70
2022-08-24T08:32:50.901Z,18.70
2022-08-24T08:33:53.102Z,17.30
2022-08-24T08:35:00.174Z,20.53
2022-08-24T08:36:09.295Z,24.00
2022-08-24T08:37:16.066Z,16.57
2022-08-24T08:38:19.381Z,18.67
2022-08-24T08:39:22.777Z,21.97
2022-08-24T08:40:42.210Z,16.80
2022-08-24T08:42:14.921Z,18.17
2022-08-24T08:43:34.374Z,19.60
2022-08-24T08:44:46.937Z,18.53
2022-08-24T08:46:13.188Z,20.40
2022-08-24T08:48:14.021Z,23.63
2022-08-24T08:49:42.109Z,23.27
2022-08-24T08:51:19.279Z,23.40
2022-08-24T08:52:57.866Z,20.03
2022-08-24T08:54:22.466Z,23.77
2022-08-24T08:55:32.580Z,22.13
2022-08-24T08:56:48.312Z,23.48
2022-08-24T08:58:03.728Z,22.17
2022-08-24T08:59:15.481Z,24.23
2022-08-24T09:00:30.845Z,19.30
2022-08-24T09:01:48.079Z,20.23
2022-08-24T09:03:26.973Z,18.77
2022-08-24T09:05:28.584Z,18.37
2022-08-24T09:07:00.082Z,22.87
2022-08-24T09:08:18.977Z,17.90
2022-08-24T09:10:05.567Z,20.13
2022-08-24T09:11:20.477Z,18.53
2022-08-24T09:12:36.779Z,19.03
2022-08-24T09:13:53.854Z,17.50
2022-08-24T09:15:23.332Z,16.10
2022-08-24T09:16:42.181Z,18.60
2022-08-24T09:18:06.663Z,21.30
2022-08-24T09:19:33.925Z,16.60
2022-08-24T09:20:54.357Z,21.33
2022-08-24T09:22:11.232Z,16.75
2022-08-24T09:23:22.910Z,17.53
2022-08-24T09:25:07.159Z,20.43
2022-08-24T09:26:24.206Z,16.57
2022-08-24T09:27:40.477Z,15.40
2022-08-24T09:28:49.394Z,21.33
2022-08-24T09:30:01.950Z,13.40
2022-08-24T09:31:28.019Z,14.30
2022-08-24T09:32:45.746Z,15.30
2022-08-24T09:34:07.138Z,12.90
2022-08-24T09:35:26.320Z,13.63
2022-08-24T09:36:41.458Z,16.27
2022-08-24T09:38:00.205Z,14.60
2022-08-24T09:39:08.472Z,18.50
2022-08-24T09:40:29.412Z,16.10
2022-08-24T09:41:55.999Z,14.40
2022-08-24T09:43:26.629Z,17.70
2022-08-24T09:44:55.634Z,15.53
2022-08-24T09:46:41.197Z,22.10
2022-08-24T09:48:16.280Z,17.30
2022-08-24T09:49:42.383Z,20.67
2022-08-24T09:51:05.826Z,15.60
2022-08-24T09:52:37.532Z,17.50
2022-08-24T09:54:31.778Z,17.90
2022-08-24T09:55:59.864Z,14.50
2022-08-24T09:57:30.686Z,18.23
2022-08-24T09:58:54.336Z,13.90
2022-08-24T10:00:09.968Z,15.30
2022-08-24T10:01:26.487Z,12.53
2022-08-24T10:02:49.062Z,14.00
2022-08-24T10:04:05.742Z,18.30
2022-08-24T10:05:20.402Z,12.80
2022-08-24T10:06:32.813Z,15.40
2022-08-24T10:07:40.285Z,14.63
2022-08-24T10:09:02.600Z,14.77
2022-08-24T10:10:23.024Z,18.73
2022-08-24T10:11:32.940Z,16.57
2022-08-24T10:12:54.151Z,16.57
2022-08-24T10:14:07.307Z,17.87
2022-08-24T10:15:14.504Z,12.57
2022-08-24T10:16:24.536Z,16.13
2022-08-24T10:17:41.289Z,18.23
2022-08-24T10:18:54.404Z,14.20
2022-08-24T10:20:09.416Z,14.60
2022-08-24T10:21:23.682Z,16.47
2022-08-24T10:22:42.579Z,14.70
2022-08-24T10:24:04.493Z,17.67
2022-08-24T10:25:20.904Z,14.17
2022-08-24T10:26:31.612Z,19.30
2022-08-24T10:27:46.168Z,17.53
2022-08-24T10:29:19.604Z,19.40
2022-08-24T10:30:53.269Z,18.50
2022-08-24T10:32:12.202Z,18.63
2022-08-24T10:33:20.735Z,14.90
2022-08-24T10:34:38.056Z,17.13
2022-08-24T10:36:03.510Z,16.50
2022-08-24T10:37:30.169Z,15.30
2022-08-24T10:38:58.740Z,16.10
2022-08-24T10:40:31.764Z,67.23
2022-08-24T10:41:59.402Z,18.03
2022-08-24T10:43:34.709Z,14.50
2022-08-24T10:44:48.936Z,13.50
2022-08-24T10:46:18.996Z,15.27
2022-08-24T10:47:27.023Z,19.10
2022-08-24T10:48:53.886Z,17.70
2022-08-24T10:50:31.183Z,19.83
2022-08-24T10:51:42.685Z,15.13
2022-08-24T10:53:13.135Z,16.20
2022-08-24T10:54:19.628Z,13.70
2022-08-24T10:55:25.401Z,18.10
2022-08-24T10:56:36.931Z,13.77
2022-08-24T10:57:44.636Z,14.50
2022-08-24T10:59:03.400Z,15.50
2022-08-24T11:00:11.761Z,16.40
2022-08-24T11:01:27.495Z,18.30
2022-08-24T11:02:32.938Z,21.83
2022-08-24T11:03:50.279Z,14.47
2022-08-24T11:04:57.953Z,13.50
2022-08-24T11:05:59.947Z,15.27
2022-08-24T11:07:10.250Z,31.30
2022-08-24T11:08:21.040Z,13.57
2022-08-24T11:09:24.013Z,17.60
2022-08-24T11:10:29.329Z,16.40
2022-08-24T11:11:36.442Z,16.60
2022-08-24T11:12:44.814Z,18.23
2022-08-24T11:13:52.358Z,19.30
2022-08-24T11:14:58.275Z,19.60
2022-08-24T11:16:03.055Z,20.90
2022-08-24T11:17:16.924Z,26.97
2022-08-24T11:18:19.422Z,21.30
2022-08-24T11:19:33.048Z,28.07
2022-08-24T11:20:39.496Z,18.93
2022-08-24T11:21:47.360Z,21.60
2022-08-24T11:23:00.955Z,21.97
2022-08-24T11:24:05.118Z,22.87
2022-08-24T11:25:15.727Z,19.83
2022-08-24T11:26:21.447Z,37.37
2022-08-24T11:27:32.168Z,42.70
2022-08-24T11:28:38.946Z,44.57
2022-08-24T11:30:05.578Z,17.07
2022-08-24T11:31:14.489Z,13.00
2022-08-24T11:32:26.945Z,16.17
2022-08-24T11:33:34.197Z,18.67
2022-08-24T11:34:39.568Z,15.37
2022-08-24T11:35:42.488Z,11.37
2022-08-24T11:36:45.083Z,15.33
2022-08-24T11:37:51.466Z,20.93
2022-08-24T11:39:12.876Z,12.70
2022-08-24T11:40:19.750Z,13.30
2022-08-24T11:41:30.524Z,11.57
2022-08-24T11:42:53.182Z,18.30
2022-08-24T11:44:03.263Z,10.87
2022-08-24T11:45:12.436Z,14.83
2022-08-24T11:46:24.168Z,17.87
2022-08-24T11:47:59.871Z,14.27
2022-08-24T11:49:10.905Z,16.57
2022-08-24T11:50:24.253Z,17.40
2022-08-24T11:51:42.191Z,24.07
2022-08-24T11:52:53.048Z,14.70
2022-08-24T11:54:04.154Z,20.67
2022-08-24T11:55:14.765Z,12.60
2022-08-24T11:56:25.898Z,15.93
2022-08-24T11:57:33.550Z,15.17
2022-08-24T11:58:49.318Z,15.37
2022-08-24T11:59:58.446Z,12.90
2022-08-24T12:01:06.911Z,14.67
2022-08-24T12:02:17.544Z,14.00
2022-08-24T12:03:37.816Z,15.20
2022-08-24T12:04:54.508Z,13.20
2022-08-24T12:06:02.612Z,20.13
2022-08-24T12:07:20.362Z,14.43
2022-08-24T12:08:33.727Z,12.27
2022-08-24T12:09:54.107Z,16.70
2022-08-24T12:11:04.423Z,14.73
2022-08-24T12:12:16.467Z,16.00
2022-08-24T12:13:33.853Z,22.00
2022-08-24T12:14:44.062Z,17.50
2022-08-24T12:15:52.334Z,13.43
2022-08-24T12:17:02.270Z,20.40
2022-08-24T12:18:16.909Z,14.87
2022-08-24T12:19:24.758Z,12.93
2022-08-24T12:20:31.998Z,15.00
2022-08-24T12:21:40.687Z,14.27
2022-08-24T12:22:43.903Z,18.03
2022-08-24T12:23:50.282Z,12.17
2022-08-24T12:24:56.272Z,15.20
2022-08-24T12:26:04.552Z,13.00
2022-08-24T12:27:11.916Z,11.40
2022-08-24T12:28:17.399Z,16.93
2022-08-24T12:29:27.326Z,19.83
2022-08-24T12:30:31.084Z,15.70
2022-08-24T12:31:41.145Z,12.30
2022-08-24T12:32:48.547Z,15.77
2022-08-24T12:33:53.184Z,15.80
2022-08-24T12:35:01.486Z,13.20
2022-08-24T12:36:15.104Z,12.80
2022-08-24T12:37:23.565Z,13.70
2022-08-24T12:38:28.856Z,11.13
2022-08-24T12:39:37.720Z,14.63
2022-08-24T12:40:47.985Z,18.73
2022-08-24T12:42:00.869Z,14.40
2022-08-24T12:43:08.657Z,14.17
2022-08-24T12:44:13.544Z,14.80
2022-08-24T12:45:19.183Z,11.57
2022-08-24T12:46:27.582Z,12.60
2022-08-24T12:47:36.933Z,13.43
2022-08-24T12:48:43.774Z,11.30
2022-08-24T12:49:52.570Z,17.80
2022-08-24T12:51:07.919Z,14.57
2022-08-24T12:52:58.383Z,28.27
2022-08-24T12:54:19.705Z,15.90
2022-08-24T12:56:02.995Z,13.67
2022-08-24T12:57:32.315Z,13.20
2022-08-24T12:58:57.802Z,16.10
2022-08-24T13:00:08.149Z,15.10
2022-08-24T13:01:11.833Z,16.10
2022-08-24T13:02:33.712Z,17.10
2022-08-24T13:03:38.209Z,17.23
2022-08-24T13:04:55.032Z,14.70
2022-08-24T13:06:00.553Z,22.50
2022-08-24T13:07:08.306Z,15.07
2022-08-24T13:08:13.615Z,16.80
2022-08-24T13:09:29.227Z,12.23
2022-08-24T13:10:44.893Z,11.13
2022-08-24T13:11:48.329Z,20.43
2022-08-24T13:13:10.926Z,9.93
2022-08-24T13:14:20.916Z,11.77
2022-08-24T13:15:52.144Z,11.33
2022-08-24T13:17:14.495Z,12.73
2022-08-24T13:19:13.671Z,9.40
2022-08-24T13:20:23.486Z,15.67
2022-08-24T13:21:51.756Z,12.30
2022-08-24T13:23:06.802Z,10.47
2022-08-24T13:24:50.195Z,12.07
2022-08-24T13:25:57.610Z,11.07
2022-08-24T13:27:46.779Z,12.20
2022-08-24T13:28:55.578Z,13.67
2022-08-24T13:30:07.161Z,13.53
2022-08-24T13:31:21.250Z,15.47
2022-08-24T13:32:31.476Z,19.07
2022-08-24T13:33:46.492Z,12.80
2022-08-24T13:34:51.577Z,13.40
2022-08-24T13:35:58.805Z,9.73
2022-08-24T13:37:14.306Z,38.73
2022-08-24T13:39:00.950Z,14.43
2022-08-24T13:40:17.634Z,11.67
2022-08-24T13:41:55.260Z,11.00
2022-08-24T13:43:10.394Z,11.37
2022-08-24T13:44:23.283Z,9.77
2022-08-24T13:45:34.313Z,14.40
2022-08-24T13:46:48.942Z,9.20
2022-08-24T13:48:02.745Z,8.00
2022-08-24T13:49:40.283Z,15.60
2022-08-24T13:51:06.589Z,10.40
2022-08-24T13:52:17.603Z,8.20
2022-08-24T13:53:56.512Z,9.97
2022-08-24T13:55:15.285Z,9.90
2022-08-24T13:56:58.325Z,11.60
2022-08-24T13:58:35.743Z,13.40
2022-08-24T14:00:02.983Z,9.73
2022-08-24T14:01:25.328Z,9.50
2022-08-24T14:02:38.322Z,13.97
2022-08-24T14:04:09.053Z,10.50
2022-08-24T14:05:23.465Z,10.90
2022-08-24T14:06:37.230Z,7.80
2022-08-24T14:07:52.235Z,14.90
2022-08-24T14:09:06.253Z,15.57
2022-08-24T14:10:14.982Z,11.53
2022-08-24T14:11:35.183Z,13.13
2022-08-24T14:12:46.339Z,12.60
2022-08-24T14:13:58.547Z,10.87
2022-08-24T14:15:15.798Z,10.23
2022-08-24T14:16:56.767Z,13.10
2022-08-24T14:18:11.417Z,9.40
2022-08-24T14:19:22.687Z,8.70
2022-08-24T14:21:02.854Z,13.30
2022-08-24T14:22:19.042Z,13.60
2022-08-24T14:23:33.927Z,8.87
2022-08-24T14:24:45.271Z,12.40
2022-08-24T14:25:51.636Z,11.70
2022-08-24T14:27:08.482Z,12.20
2022-08-24T14:28:43.509Z,8.40
2022-08-24T14:29:47.448Z,7.53
2022-08-24T14:31:21.329Z,11.87
2022-08-24T14:32:30.132Z,12.53
2022-08-24T14:33:36.406Z,9.10
2022-08-24T14:34:48.746Z,10.43
2022-08-24T14:36:14.970Z,12.17
2022-08-24T14:37:22.776Z,7.50
2022-08-24T14:38:58.505Z,10.13
2022-08-24T14:40:17.199Z,11.87
2022-08-24T14:41:36.353Z,7.23
2022-08-24T14:42:44.084Z,8.23
2022-08-24T14:44:10.978Z,11.40
2022-08-24T14:45:23.005Z,9.90
2022-08-24T14:46:34.148Z,10.57
2022-08-24T14:47:49.161Z,11.80
2022-08-24T14:49:01.588Z,12.70
2022-08-24T14:50:14.833Z,9.30
2022-08-24T14:51:35.006Z,15.83
2022-08-24T14:52:54.880Z,9.10
2022-08-24T14:54:01.923Z,7.70
2022-08-24T14:55:11.744Z,11.07
2022-08-24T14:56:24.764Z,12.70
2022-08-24T14:57:48.710Z,10.60
2022-08-24T15:00:14.214Z,11.70
2022-08-24T15:01:39.204Z,16.80
2022-08-24T15:03:17.051Z,13.77
2022-08-24T15:04:37.675Z,12.63
2022-08-24T15:05:45.721Z,9.60
2022-08-24T15:07:23.842Z,16.10